Main page
METAR-TAF:

METAR-TAF

Airports :

Agen La Garenne Airport

Agen, France

latitude: 44-11N, longitude: 000-36E, elevation: 61 m

Current weather observation

The report was made 38 minutes ago, at 23:30 UTC
Wind 7 kt from the West/Northwest
Temperature 20°C
Humidity 88%
Pressure 1022 hPa
Visibility 10 km or more
no clouds below 1500 m and no cumulonimbus

METAR: LFBA 052330Z AUTO 29007KT CAVOK 20/18 Q1022

Time: 02:08 (00:08 UTC)

Forecast

The report was made 10 hours and 8 minutes ago, at 14:00 UTC
Forecast valid from 05 at 15 UTC to 05 at 24 UTC
Wind 5 kt from the Northwest
Visibility 10 km or more
no clouds below 1500 m and no cumulonimbus
Becoming
from 05 at 22 UTC to 05 at 24 UTC
Broken clouds at a height of 1300 ft

TAF: LFBA 051400Z 0515/0524 32005KT CAVOK BECMG 0522/0524 BKN013

Weather observations and forecasts of more than 4000 airports (METAR and TAF reports).

The available stations are represented by yellow and red dots on the map.

Hover mouse over dot to see the name of the station.

Then click to see weather observations and forecasts.

To change the map : click on the green buttons with a black cross to zoom in, on the green button with a dash to zoom out, or on the green arrows for adjacent maps.


METAR-TAF: